createdAt,value
2023-12-30T00:02:00.313Z,0.45
2023-12-30T00:04:28.940Z,0.49
2023-12-30T00:06:57.663Z,0.52
2023-12-30T00:09:26.255Z,0.30
2023-12-30T00:11:56.023Z,0.50
2023-12-30T00:14:25.228Z,0.51
2023-12-30T00:16:53.907Z,0.46
2023-12-30T00:19:22.651Z,0.35
2023-12-30T00:21:51.423Z,0.44
2023-12-30T00:24:20.071Z,0.34
2023-12-30T00:26:48.758Z,0.24
2023-12-30T00:29:17.519Z,0.25
2023-12-30T00:31:46.240Z,0.17
2023-12-30T00:34:15.012Z,-0.01
2023-12-30T00:36:46.886Z,-0.17
2023-12-30T00:39:15.575Z,-0.15
2023-12-30T00:41:44.183Z,-0.34
2023-12-30T00:44:13.328Z,-0.42
2023-12-30T00:46:43.351Z,-0.58
2023-12-30T00:49:13.963Z,-0.68
2023-12-30T00:51:43.073Z,-0.80
2023-12-30T00:54:11.710Z,-1.04
2023-12-30T00:56:40.608Z,-1.21
2023-12-30T00:59:09.181Z,-0.99
2023-12-30T01:01:37.832Z,-0.85
2023-12-30T01:04:06.842Z,-0.64
2023-12-30T01:06:38.525Z,-0.62
2023-12-30T01:09:07.351Z,-0.72
2023-12-30T01:11:36.668Z,-0.81
2023-12-30T01:14:05.426Z,-0.78
2023-12-30T01:16:37.107Z,-0.59
2023-12-30T01:19:06.033Z,-0.57
2023-12-30T01:21:34.667Z,-0.62
2023-12-30T01:24:03.388Z,-0.68
2023-12-30T01:26:32.041Z,-0.64
2023-12-30T01:29:00.703Z,-0.64
2023-12-30T01:31:29.370Z,-0.66
2023-12-30T01:33:58.151Z,-0.66
2023-12-30T01:36:26.812Z,-0.61
2023-12-30T01:38:55.476Z,-0.58
2023-12-30T01:41:24.120Z,-0.62
2023-12-30T01:43:52.758Z,-0.67
2023-12-30T01:46:21.398Z,-0.48
2023-12-30T01:48:50.351Z,-0.60
2023-12-30T01:51:24.961Z,-0.70
2023-12-30T01:53:58.073Z,-0.62
2023-12-30T01:56:28.313Z,-0.82
2023-12-30T01:58:58.426Z,-0.94
2023-12-30T02:01:30.053Z,-0.93
2023-12-30T02:03:59.021Z,-1.30
2023-12-30T02:06:27.669Z,-1.53
2023-12-30T02:08:56.532Z,-1.76
2023-12-30T02:11:25.320Z,-1.84
2023-12-30T02:13:53.963Z,-1.96
2023-12-30T02:16:22.633Z,-2.06
2023-12-30T02:18:51.432Z,-2.21
2023-12-30T02:21:19.968Z,-2.36
2023-12-30T02:23:57.365Z,-2.21
2023-12-30T02:26:26.842Z,-2.34
2023-12-30T02:28:55.411Z,-2.29
2023-12-30T02:31:24.198Z,-2.27
2023-12-30T02:33:52.938Z,-2.30
2023-12-30T02:36:21.581Z,-2.33
2023-12-30T02:38:50.738Z,-2.21
2023-12-30T02:41:19.322Z,-2.05
2023-12-30T02:44:08.537Z,-1.92
2023-12-30T02:46:37.186Z,-1.79
2023-12-30T02:49:07.571Z,-1.73
2023-12-30T02:51:36.534Z,-1.73
2023-12-30T02:54:05.306Z,-1.74
2023-12-30T02:56:33.965Z,-1.78
2023-12-30T02:59:04.342Z,-1.85
2023-12-30T03:01:34.853Z,-1.68
2023-12-30T03:04:03.947Z,-1.60
2023-12-30T03:06:32.634Z,-1.64
2023-12-30T03:09:01.625Z,-1.71
2023-12-30T03:11:30.437Z,-1.78
2023-12-30T03:13:59.142Z,-1.87
2023-12-30T03:16:27.970Z,-1.93
2023-12-30T03:18:57.915Z,-2.00
2023-12-30T03:21:27.542Z,-1.98
2023-12-30T03:23:56.241Z,-1.84
2023-12-30T03:26:25.395Z,-1.79
2023-12-30T03:28:54.023Z,-1.75
2023-12-30T03:31:27.239Z,-1.78
2023-12-30T03:33:56.794Z,-1.78
2023-12-30T03:36:25.475Z,-1.78
2023-12-30T03:38:55.469Z,-1.85
2023-12-30T03:41:24.402Z,-1.91
2023-12-30T03:43:53.275Z,-2.03
2023-12-30T03:46:22.027Z,-1.99
2023-12-30T03:48:50.831Z,-1.92
2023-12-30T03:51:19.621Z,-1.96
2023-12-30T03:53:48.276Z,-2.00
2023-12-30T03:56:16.917Z,-2.04
2023-12-30T03:58:45.481Z,-2.03
2023-12-30T04:01:14.184Z,-1.98
2023-12-30T04:03:43.200Z,-2.00
2023-12-30T04:06:18.925Z,-2.07
2023-12-30T04:08:47.579Z,-2.02
2023-12-30T04:11:16.240Z,-2.08
2023-12-30T04:13:44.878Z,-1.98
2023-12-30T04:16:13.722Z,-1.92
2023-12-30T04:18:42.518Z,-1.97
2023-12-30T04:21:10.566Z,-1.82
2023-12-30T04:23:39.268Z,-1.88
2023-12-30T04:26:07.897Z,-1.86
2023-12-30T04:28:37.089Z,-1.82
2023-12-30T04:31:05.977Z,-1.79
2023-12-30T04:33:34.728Z,-1.86
2023-12-30T04:36:03.438Z,-1.86
2023-12-30T04:38:32.140Z,-1.97
2023-12-30T04:41:00.739Z,-1.99
2023-12-30T04:43:29.437Z,-2.01
2023-12-30T04:45:58.108Z,-2.08
2023-12-30T04:48:26.577Z,-2.08
2023-12-30T04:50:55.981Z,-2.11
2023-12-30T04:53:24.602Z,-2.15
2023-12-30T04:55:53.200Z,-2.21
2023-12-30T04:58:21.910Z,-2.27
2023-12-30T05:00:50.757Z,-2.39
2023-12-30T05:03:19.806Z,-2.58
2023-12-30T05:05:48.691Z,-2.73
2023-12-30T05:08:17.345Z,-2.87
2023-12-30T05:10:46.446Z,-3.01
2023-12-30T05:13:15.200Z,-3.09
2023-12-30T05:15:43.931Z,-3.09
2023-12-30T05:18:14.355Z,-3.08
2023-12-30T05:20:43.644Z,-3.01
2023-12-30T05:23:12.334Z,-2.81
2023-12-30T05:25:40.991Z,-2.89
2023-12-30T05:28:09.736Z,-2.83
2023-12-30T05:30:38.741Z,-2.81
2023-12-30T05:33:08.733Z,-2.82
2023-12-30T05:35:40.813Z,-2.86
2023-12-30T05:38:09.473Z,-2.85
2023-12-30T05:40:38.107Z,-2.76
2023-12-30T05:43:06.923Z,-2.80
2023-12-30T05:45:35.589Z,-2.76
2023-12-30T05:48:05.028Z,-2.74
2023-12-30T05:50:33.970Z,-2.82
2023-12-30T05:53:03.129Z,-2.90
2023-12-30T05:55:31.922Z,-2.76
2023-12-30T05:58:00.796Z,-2.67
2023-12-30T06:00:29.428Z,-2.66
2023-12-30T06:02:58.028Z,-2.61
2023-12-30T06:05:26.141Z,-2.54
2023-12-30T06:07:54.883Z,-2.53
2023-12-30T06:10:25.233Z,-2.64
2023-12-30T06:12:53.905Z,-2.61
2023-12-30T06:15:24.545Z,-2.65
2023-12-30T06:17:53.465Z,-2.50
2023-12-30T06:20:23.658Z,-2.48
2023-12-30T06:22:52.487Z,-2.50
2023-12-30T06:25:21.129Z,-2.51
2023-12-30T06:27:49.878Z,-2.41
2023-12-30T06:30:19.004Z,-2.40
2023-12-30T06:32:47.737Z,-2.47
2023-12-30T06:35:16.420Z,-2.41
2023-12-30T06:37:45.023Z,-2.36
2023-12-30T06:40:13.938Z,-2.34
2023-12-30T06:42:42.574Z,-2.42
2023-12-30T06:45:11.507Z,-2.46
2023-12-30T06:47:40.247Z,-2.43
2023-12-30T06:50:09.259Z,-2.47
2023-12-30T06:52:37.857Z,-2.54
2023-12-30T06:55:18.529Z,-2.49
2023-12-30T06:57:52.024Z,-2.46
2023-12-30T07:00:21.176Z,-2.47
2023-12-30T07:02:49.869Z,-2.52
2023-12-30T07:05:18.541Z,-2.58
2023-12-30T07:07:47.221Z,-2.53
2023-12-30T07:10:15.819Z,-2.58
2023-12-30T07:12:44.428Z,-2.55
2023-12-30T07:15:13.212Z,-2.59
2023-12-30T07:17:42.073Z,-2.59
2023-12-30T07:20:10.932Z,-2.49
2023-12-30T07:22:39.645Z,-2.46
2023-12-30T07:25:08.656Z,-2.51
2023-12-30T07:27:37.527Z,-2.56
2023-12-30T07:30:07.202Z,-2.54
2023-12-30T07:32:35.988Z,-2.58
2023-12-30T07:35:06.037Z,-2.67
2023-12-30T07:37:36.089Z,-2.57
2023-12-30T07:40:05.414Z,-2.64
2023-12-30T07:42:34.159Z,-2.63
2023-12-30T07:45:02.765Z,-2.64
2023-12-30T07:47:31.676Z,-2.62
2023-12-30T07:50:00.544Z,-2.61
2023-12-30T07:52:29.298Z,-2.69
2023-12-30T07:54:58.015Z,-2.76
2023-12-30T07:57:26.681Z,-2.71
2023-12-30T07:59:55.660Z,-2.58
2023-12-30T08:02:24.466Z,-2.59
2023-12-30T08:04:53.499Z,-2.57
2023-12-30T08:07:22.154Z,-2.58
2023-12-30T08:09:50.814Z,-2.59
2023-12-30T08:12:19.469Z,-2.54
2023-12-30T08:14:48.663Z,-2.45
2023-12-30T08:17:17.352Z,-2.38
2023-12-30T08:19:46.040Z,-2.43
2023-12-30T08:22:14.760Z,-2.46
2023-12-30T08:24:43.359Z,-2.48
2023-12-30T08:27:12.307Z,-2.51
2023-12-30T08:29:41.414Z,-2.49
2023-12-30T08:32:10.110Z,-2.54
2023-12-30T08:34:38.968Z,-2.55
2023-12-30T08:37:11.119Z,-2.46
2023-12-30T08:39:40.514Z,-2.45
2023-12-30T08:42:09.398Z,-2.52
2023-12-30T08:44:46.075Z,-2.41
2023-12-30T08:47:15.103Z,-2.36
2023-12-30T08:49:44.913Z,-2.44
2023-12-30T08:52:14.164Z,-2.43
2023-12-30T08:54:42.937Z,-2.39
2023-12-30T08:57:11.537Z,-2.27
2023-12-30T08:59:40.958Z,-2.23
2023-12-30T09:02:09.556Z,-2.13
2023-12-30T09:04:38.180Z,-2.00
2023-12-30T09:07:06.897Z,-1.97
2023-12-30T09:09:35.566Z,-2.04
2023-12-30T09:12:04.300Z,-2.00
2023-12-30T09:14:33.010Z,-1.87
2023-12-30T09:17:01.964Z,-1.88
2023-12-30T09:19:30.698Z,-1.88
2023-12-30T09:21:59.609Z,-1.98
2023-12-30T09:24:28.275Z,-2.01
2023-12-30T09:26:56.915Z,-2.14
2023-12-30T09:29:25.629Z,-2.13
2023-12-30T09:31:54.425Z,-2.09
2023-12-30T09:34:33.506Z,-2.16
2023-12-30T09:37:07.469Z,-2.13
2023-12-30T09:39:36.251Z,-2.03
2023-12-30T09:42:05.034Z,-2.03
2023-12-30T09:44:34.672Z,-1.98
2023-12-30T09:47:05.291Z,-1.97
2023-12-30T09:49:36.777Z,-2.01
2023-12-30T09:52:09.049Z,-2.03
2023-12-30T09:54:45.923Z,-2.17
2023-12-30T09:57:18.444Z,-2.12
2023-12-30T09:59:50.494Z,-2.07
2023-12-30T10:02:19.248Z,-2.12
2023-12-30T10:04:47.952Z,-2.12
2023-12-30T10:07:16.772Z,-2.09
2023-12-30T10:09:47.034Z,-2.17
2023-12-30T10:12:15.217Z,-2.24
2023-12-30T10:14:43.980Z,-2.24
2023-12-30T10:17:12.795Z,-2.34
2023-12-30T10:19:41.461Z,-2.42
2023-12-30T10:22:10.234Z,-2.26
2023-12-30T10:24:39.721Z,-2.25
2023-12-30T10:27:07.928Z,-2.19
2023-12-30T10:29:46.724Z,-2.28
2023-12-30T10:32:23.787Z,-2.24
2023-12-30T10:34:53.073Z,-2.21
2023-12-30T10:37:25.699Z,-2.20
2023-12-30T10:39:57.513Z,-2.37
2023-12-30T10:42:26.334Z,-2.39
2023-12-30T10:44:54.965Z,-2.26
2023-12-30T10:47:26.504Z,-2.14
2023-12-30T10:50:01.083Z,-2.32
2023-12-30T10:52:31.026Z,-2.43
2023-12-30T10:55:09.964Z,-2.56
2023-12-30T10:57:40.060Z,-2.45
2023-12-30T11:00:12.890Z,-2.49
2023-12-30T11:02:42.042Z,-2.39
2023-12-30T11:05:22.135Z,-2.49
2023-12-30T11:07:51.536Z,-2.50
2023-12-30T11:10:22.801Z,-2.47
2023-12-30T11:12:55.574Z,-2.48
2023-12-30T11:15:34.116Z,-2.40
2023-12-30T11:18:04.128Z,-2.42
2023-12-30T11:20:35.073Z,-2.54
2023-12-30T11:23:06.245Z,-2.65
2023-12-30T11:25:50.235Z,-2.63
2023-12-30T11:28:22.365Z,-2.74
2023-12-30T11:31:02.837Z,-2.79
2023-12-30T11:33:31.653Z,-2.79
2023-12-30T11:36:02.407Z,-2.74
2023-12-30T11:38:34.044Z,-2.74
2023-12-30T11:41:05.216Z,-2.61
2023-12-30T11:43:33.931Z,-2.61
2023-12-30T11:46:02.653Z,-2.71
2023-12-30T11:48:32.359Z,-2.67
2023-12-30T11:51:01.191Z,-2.62
2023-12-30T11:53:30.388Z,-2.65
2023-12-30T11:55:59.085Z,-2.55
2023-12-30T11:58:27.807Z,-2.56
2023-12-30T12:00:56.744Z,-2.52
2023-12-30T12:03:25.441Z,-2.58
2023-12-30T12:05:54.095Z,-2.64
2023-12-30T12:08:22.764Z,-2.63
2023-12-30T12:10:51.502Z,-2.62
2023-12-30T12:13:27.262Z,-2.66
2023-12-30T12:15:58.104Z,-2.73
2023-12-30T12:18:27.556Z,-2.70
2023-12-30T12:20:56.433Z,-2.81
2023-12-30T12:23:26.902Z,-2.66
2023-12-30T12:25:55.621Z,-2.60
2023-12-30T12:28:25.882Z,-2.48
2023-12-30T12:30:54.635Z,-2.48
2023-12-30T12:33:23.319Z,-2.42
2023-12-30T12:35:52.058Z,-2.38
2023-12-30T12:38:20.955Z,-2.36
2023-12-30T12:40:49.701Z,-2.38
2023-12-30T12:43:18.525Z,-2.44
2023-12-30T12:45:47.210Z,-2.37
2023-12-30T12:48:17.658Z,-2.36
2023-12-30T12:50:46.318Z,-2.38
2023-12-30T12:53:15.187Z,-2.38
2023-12-30T12:55:43.792Z,-2.29
2023-12-30T12:58:12.417Z,-2.32
2023-12-30T13:00:41.120Z,-2.30
2023-12-30T13:03:10.418Z,-2.30
2023-12-30T13:05:39.543Z,-2.35
2023-12-30T13:08:10.730Z,-2.27
2023-12-30T13:10:48.486Z,-2.29
2023-12-30T13:13:17.559Z,-2.32
2023-12-30T13:15:47.673Z,-2.37
2023-12-30T13:18:21.444Z,-2.30
2023-12-30T13:20:50.421Z,-2.34
2023-12-30T13:23:19.270Z,-2.38
2023-12-30T13:25:49.847Z,-2.36
2023-12-30T13:28:19.203Z,-2.48
2023-12-30T13:30:48.487Z,-2.38
2023-12-30T13:33:23.065Z,-2.34
2023-12-30T13:35:52.845Z,-2.39
2023-12-30T13:38:26.512Z,-2.31
2023-12-30T13:41:02.522Z,-2.35
2023-12-30T13:43:31.358Z,-2.40
2023-12-30T13:46:19.914Z,-2.41
2023-12-30T13:48:51.376Z,-2.15
2023-12-30T13:51:22.441Z,-2.14
2023-12-30T13:53:51.084Z,-2.16
2023-12-30T13:56:23.081Z,-2.20
2023-12-30T13:58:52.843Z,-2.17
2023-12-30T14:01:24.850Z,-2.20
2023-12-30T14:03:58.354Z,-2.20
2023-12-30T14:06:34.784Z,-2.13
2023-12-30T14:09:23.602Z,-2.16
2023-12-30T14:11:58.074Z,-2.16
2023-12-30T14:14:26.733Z,-2.17
2023-12-30T14:16:55.402Z,-2.21
2023-12-30T14:19:24.280Z,-2.17
2023-12-30T14:21:54.304Z,-2.14
2023-12-30T14:24:22.977Z,-2.20
2023-12-30T14:26:51.671Z,-2.17
2023-12-30T14:29:21.239Z,-2.21
2023-12-30T14:31:50.108Z,-2.15
2023-12-30T14:34:18.900Z,-2.16
2023-12-30T14:36:47.056Z,-2.15
2023-12-30T14:39:18.313Z,-2.08
2023-12-30T14:41:46.996Z,-2.21
2023-12-30T14:44:15.630Z,-2.15
2023-12-30T14:46:44.379Z,-2.08
2023-12-30T14:49:13.270Z,-2.06
2023-12-30T14:51:41.947Z,-2.00
2023-12-30T14:54:10.632Z,-1.93
2023-12-30T14:56:39.833Z,-2.04
2023-12-30T14:59:08.504Z,-2.04
2023-12-30T15:01:37.230Z,-2.01
2023-12-30T15:04:06.947Z,-1.90
2023-12-30T15:06:37.563Z,-1.86
2023-12-30T15:09:09.329Z,-1.92
2023-12-30T15:11:37.984Z,-1.86
2023-12-30T15:14:07.745Z,-1.87
2023-12-30T15:16:36.666Z,-1.92
2023-12-30T15:19:05.423Z,-1.94
2023-12-30T15:21:36.955Z,-1.90
2023-12-30T15:24:05.934Z,-1.94
2023-12-30T15:26:34.566Z,-2.00
2023-12-30T15:29:03.322Z,-2.12
2023-12-30T15:31:32.198Z,-2.08
2023-12-30T15:34:01.052Z,-2.08
2023-12-30T15:36:29.916Z,-2.12
2023-12-30T15:38:59.068Z,-2.16
2023-12-30T15:41:27.685Z,-2.11
2023-12-30T15:43:56.565Z,-2.21
2023-12-30T15:46:25.298Z,-2.19
2023-12-30T15:48:54.060Z,-2.29
2023-12-30T15:51:23.052Z,-2.26
2023-12-30T15:53:51.756Z,-2.21
2023-12-30T15:56:20.319Z,-2.22
2023-12-30T15:58:49.049Z,-2.26
2023-12-30T16:01:17.756Z,-2.28
2023-12-30T16:03:46.507Z,-2.30
2023-12-30T16:06:15.694Z,-2.28
2023-12-30T16:08:44.885Z,-2.26
2023-12-30T16:11:13.854Z,-2.31
2023-12-30T16:13:42.583Z,-2.30
2023-12-30T16:16:11.685Z,-2.33
2023-12-30T16:18:40.375Z,-2.36
2023-12-30T16:21:09.157Z,-2.33
2023-12-30T16:23:38.128Z,-2.31
2023-12-30T16:26:07.671Z,-2.29
2023-12-30T16:28:36.626Z,-2.33
2023-12-30T16:31:08.491Z,-2.35
2023-12-30T16:33:42.856Z,-2.34
2023-12-30T16:36:11.549Z,-2.36
2023-12-30T16:38:40.274Z,-2.35
2023-12-30T16:41:08.938Z,-2.36
2023-12-30T16:43:38.998Z,-2.27
2023-12-30T16:46:07.747Z,-2.22
2023-12-30T16:48:36.595Z,-2.21
2023-12-30T16:51:05.907Z,-2.15
2023-12-30T16:53:34.540Z,-2.17
2023-12-30T16:56:03.221Z,-2.13
2023-12-30T16:58:33.168Z,-2.10
2023-12-30T17:01:05.899Z,-2.07
2023-12-30T17:03:35.047Z,-2.06
2023-12-30T17:06:03.659Z,-1.99
2023-12-30T17:08:32.372Z,-1.88
2023-12-30T17:11:01.108Z,-1.81
2023-12-30T17:13:35.305Z,-1.72
2023-12-30T17:16:09.270Z,-1.62
2023-12-30T17:18:38.032Z,-1.54
2023-12-30T17:21:06.700Z,-1.46
2023-12-30T17:23:35.395Z,-1.38
2023-12-30T17:26:04.079Z,-1.32
2023-12-30T17:28:32.690Z,-1.28
2023-12-30T17:31:01.551Z,-1.23
2023-12-30T17:33:30.270Z,-1.19
2023-12-30T17:35:58.919Z,-1.14
2023-12-30T17:38:27.573Z,-1.11
2023-12-30T17:40:56.307Z,-1.05
2023-12-30T17:43:25.481Z,-1.02
2023-12-30T17:45:54.201Z,-0.98
2023-12-30T17:48:22.236Z,-0.99
2023-12-30T17:50:50.896Z,-0.91
2023-12-30T17:53:19.510Z,-0.89
2023-12-30T17:55:48.114Z,-0.84
2023-12-30T17:58:16.854Z,-0.82
2023-12-30T18:00:45.451Z,-0.81
2023-12-30T18:03:14.186Z,-0.78
2023-12-30T18:05:42.971Z,-0.78
2023-12-30T18:08:11.688Z,-0.77
2023-12-30T18:10:40.632Z,-0.74
2023-12-30T18:13:10.019Z,-0.77
2023-12-30T18:15:38.823Z,-0.75
2023-12-30T18:18:07.710Z,-0.72
2023-12-30T18:20:36.401Z,-0.69
2023-12-30T18:23:05.392Z,-0.67
2023-12-30T18:25:35.817Z,-0.68
2023-12-30T18:28:04.903Z,-0.74
2023-12-30T18:30:33.576Z,-0.77
2023-12-30T18:33:02.510Z,-0.64
2023-12-30T18:35:31.295Z,-0.68
2023-12-30T18:38:00.625Z,-0.59
2023-12-30T18:40:30.624Z,-0.64
2023-12-30T18:43:00.589Z,-0.62
2023-12-30T18:45:30.081Z,-0.64
2023-12-30T18:47:58.756Z,-0.58
2023-12-30T18:50:27.473Z,-0.57
2023-12-30T18:52:56.187Z,-0.61
2023-12-30T18:55:24.904Z,-0.58
2023-12-30T18:57:53.542Z,-0.53
2023-12-30T19:00:26.364Z,-0.61
2023-12-30T19:02:55.122Z,-0.49
2023-12-30T19:05:24.341Z,-0.43
2023-12-30T19:07:53.297Z,-0.49
2023-12-30T19:10:22.128Z,-0.39
2023-12-30T19:12:52.349Z,-0.29
2023-12-30T19:15:22.488Z,-0.25
2023-12-30T19:17:51.376Z,-0.16
2023-12-30T19:20:20.287Z,-0.03
2023-12-30T19:22:52.852Z,0.25
2023-12-30T19:25:21.632Z,0.27
2023-12-30T19:27:50.120Z,0.39
2023-12-30T19:30:18.796Z,0.46
2023-12-30T19:32:47.528Z,0.53
2023-12-30T19:35:16.686Z,0.75
2023-12-30T19:37:45.558Z,0.91
2023-12-30T19:40:14.567Z,1.18
2023-12-30T19:42:43.223Z,1.36
2023-12-30T19:45:13.225Z,1.53
2023-12-30T19:47:42.725Z,1.57
2023-12-30T19:50:12.444Z,1.66
2023-12-30T19:52:41.156Z,1.76
2023-12-30T19:55:10.482Z,1.69
2023-12-30T19:57:39.929Z,1.78
2023-12-30T20:00:11.297Z,1.76
2023-12-30T20:02:40.595Z,1.81
2023-12-30T20:05:12.063Z,1.83
2023-12-30T20:07:41.338Z,1.79
2023-12-30T20:10:16.670Z,1.77
2023-12-30T20:12:45.268Z,1.90
2023-12-30T20:15:14.041Z,1.86
2023-12-30T20:17:42.690Z,1.94
2023-12-30T20:20:12.927Z,1.83
2023-12-30T20:22:43.135Z,1.86
2023-12-30T20:25:11.940Z,1.91
2023-12-30T20:27:42.887Z,2.03
2023-12-30T20:30:12.014Z,2.07
2023-12-30T20:32:40.694Z,2.05
2023-12-30T20:35:09.712Z,2.00
2023-12-30T20:37:38.439Z,2.05
2023-12-30T20:40:12.741Z,2.02
2023-12-30T20:42:41.456Z,2.15
2023-12-30T20:45:10.330Z,2.19
2023-12-30T20:47:39.031Z,2.17
2023-12-30T20:50:08.588Z,2.28
2023-12-30T20:52:39.142Z,2.30
2023-12-30T20:55:08.766Z,2.26
2023-12-30T20:57:37.558Z,2.27
2023-12-30T21:00:06.610Z,2.35
2023-12-30T21:02:35.283Z,2.42
2023-12-30T21:05:03.867Z,2.44
2023-12-30T21:07:32.537Z,2.41
2023-12-30T21:10:01.131Z,2.48
2023-12-30T21:12:30.144Z,2.54
2023-12-30T21:14:59.036Z,2.54
2023-12-30T21:17:27.685Z,2.46
2023-12-30T21:19:56.822Z,2.48
2023-12-30T21:22:26.852Z,2.52
2023-12-30T21:24:56.827Z,2.57
2023-12-30T21:27:25.451Z,2.50
2023-12-30T21:29:54.108Z,2.49
2023-12-30T21:32:22.837Z,2.46
2023-12-30T21:34:50.812Z,2.43
2023-12-30T21:37:19.560Z,2.43
2023-12-30T21:39:48.823Z,2.41
2023-12-30T21:42:17.426Z,2.36
2023-12-30T21:44:47.725Z,2.31
2023-12-30T21:47:16.402Z,2.29
2023-12-30T21:49:45.014Z,2.24
2023-12-30T21:52:14.177Z,2.23
2023-12-30T21:54:47.999Z,2.18
2023-12-30T21:57:17.038Z,2.22
2023-12-30T21:59:45.705Z,2.17
2023-12-30T22:02:14.361Z,2.17
2023-12-30T22:04:43.078Z,2.18
2023-12-30T22:07:11.095Z,2.18
2023-12-30T22:09:39.837Z,2.14
2023-12-30T22:12:08.511Z,2.18
2023-12-30T22:14:37.429Z,2.13
2023-12-30T22:17:08.477Z,2.08
2023-12-30T22:19:38.825Z,1.95
2023-12-30T22:22:07.586Z,1.80
2023-12-30T22:24:36.234Z,1.74
2023-12-30T22:27:05.062Z,1.70
2023-12-30T22:29:33.646Z,1.69
2023-12-30T22:32:03.589Z,1.58
2023-12-30T22:34:32.329Z,1.59
2023-12-30T22:37:01.084Z,1.60
2023-12-30T22:39:29.724Z,1.48
2023-12-30T22:41:58.596Z,1.51
2023-12-30T22:44:27.281Z,1.46
2023-12-30T22:46:55.367Z,1.42
2023-12-30T22:49:24.799Z,1.31
2023-12-30T22:51:53.631Z,1.39
2023-12-30T22:54:21.651Z,1.28
2023-12-30T22:56:50.376Z,1.28
2023-12-30T22:59:18.707Z,1.23
2023-12-30T23:01:47.683Z,1.17
2023-12-30T23:04:16.324Z,1.19
2023-12-30T23:06:45.717Z,1.10
2023-12-30T23:09:14.443Z,0.94
2023-12-30T23:11:43.184Z,1.04
2023-12-30T23:14:12.010Z,1.05
2023-12-30T23:16:40.935Z,1.01
2023-12-30T23:19:09.652Z,1.00
2023-12-30T23:21:39.095Z,1.00
2023-12-30T23:24:08.686Z,1.02
2023-12-30T23:26:37.318Z,0.91
2023-12-30T23:29:05.984Z,0.94
2023-12-30T23:31:34.606Z,0.87
2023-12-30T23:34:03.807Z,0.77
2023-12-30T23:36:32.432Z,0.82
2023-12-30T23:39:01.074Z,0.87
2023-12-30T23:41:29.006Z,0.83
2023-12-30T23:43:57.777Z,0.80
2023-12-30T23:46:26.430Z,0.77
2023-12-30T23:48:55.060Z,0.78
2023-12-30T23:51:23.703Z,0.77
2023-12-30T23:53:52.337Z,0.76
2023-12-30T23:56:20.978Z,0.69
2023-12-30T23:58:49.971Z,0.62
